Wetterdaten Neuhaus/Waldnaab

^

Wetter Neuhaus/WN - aktuelle & historische Daten
 
tägl. Zusammenfassung für den 22. April 2018
« minus 1 Tag
plus 1 Tag »
tägl. wöchentl. monatl. jährl.
  Aktuell: Höchstwert: Tiefstwert: Durchschnitt:
Temperatur: 10.6 °C 13.2 °C 10.6 °C 11.6 °C
Taupunkt: 10.5 °C 12.8 °C 10.5 °C 11.4 °C
Luftfeuchte: 99 % 99 % 96 % 99 %
Windgeschwindigkeit: 0.0 km/h 0.0 km/h 0.0 km/h 0 km/h
Windböe: 0.0 km/h 0.0 km/h - -
Wind:ruhig - - Nord
Druck: 1019.9 hPa 1020.5 hPa 1019.9 hPa -
Niederschlag: 0.0 mm      
Historical Graphs
 
 














tabellarische Daten für den 22 . April 2018
Zeit Temperatur Taupunkt Luftdruck Wind Windgeschwindigkeit Windböe Luftfeuchte Regen (pro h) Solar Bedingungen
00:03 13.2 °C 12.8 °C 1020.5 hPa Ruhig     97 % 0.0 mm 0.00 W/m2
00:08 13.1 °C 12.5 °C 1020.5 hPa Ruhig     96 % 0.0 mm 0.00 W/m2
00:13 12.9 °C 12.5 °C 1020.5 hPa Ruhig     97 % 0.0 mm 0.00 W/m2
00:18 12.8 °C 12.5 °C 1020.5 hPa Ruhig     98 % 0.0 mm 0.00 W/m2
00:23 12.7 °C 12.6 °C 1020.5 hPa Ruhig     99 % 0.0 mm 0.00 W/m2
00:29 12.6 °C 12.5 °C 1020.2 hPa Ruhig     99 % 0.0 mm 0.00 W/m2
00:34 12.4 °C 12.3 °C 1020.5 hPa Ruhig     99 % 0.0 mm 0.00 W/m2
00:40 12.2 °C 12.1 °C 1020.5 hPa Ruhig     99 % 0.0 mm 0.00 W/m2
00:45 12.0 °C 11.9 °C 1020.5 hPa Ruhig     99 % 0.0 mm 0.00 W/m2
00:50 11.8 °C 11.7 °C 1020.5 hPa Ruhig     99 % 0.0 mm 0.00 W/m2
00:56 11.7 °C 11.6 °C 1020.5 hPa Ruhig     99 % 0.0 mm 0.00 W/m2
01:01 11.6 °C 11.5 °C 1020.5 hPa Ruhig     99 % 0.0 mm 0.00 W/m2
01:06 11.5 °C 11.4 °C 1020.5 hPa Ruhig     99 % 0.0 mm 0.00 W/m2
01:12 11.4 °C 11.3 °C 1020.5 hPa Ruhig     99 % 0.0 mm 0.00 W/m2
01:17 11.2 °C 11.1 °C 1020.5 hPa Ruhig     99 % 0.0 mm 0.00 W/m2
01:22 11.1 °C 11.0 °C 1020.2 hPa Ruhig     99 % 0.0 mm 0.00 W/m2
01:27 11.0 °C 10.9 °C 1020.2 hPa Ruhig     99 % 0.0 mm 0.00 W/m2
01:32 10.9 °C 10.8 °C 1020.5 hPa Ruhig     99 % 0.0 mm 0.00 W/m2
01:37 10.9 °C 10.8 °C 1020.2 hPa Ruhig     99 % 0.0 mm 0.00 W/m2
01:42 11.0 °C 10.9 °C 1020.5 hPa Ruhig     99 % 0.0 mm 0.00 W/m2
01:48 11.0 °C 10.9 °C 1020.2 hPa Ruhig     99 % 0.0 mm 0.00 W/m2
01:53 11.0 °C 10.9 °C 1020.2 hPa Ruhig     99 % 0.0 mm 0.00 W/m2
01:58 10.9 °C 10.8 °C 1020.2 hPa Ruhig     99 % 0.0 mm 0.00 W/m2
02:04 10.9 °C 10.8 °C 1020.2 hPa Ruhig     99 % 0.0 mm 0.00 W/m2
02:09 10.8 °C 10.7 °C 1019.9 hPa Ruhig     99 % 0.0 mm 0.00 W/m2
02:14 10.7 °C 10.6 °C 1019.9 hPa Ruhig     99 % 0.0 mm 0.00 W/m2
02:20 10.7 °C 10.6 °C 1019.9 hPa Ruhig     99 % 0.0 mm 0.00 W/m2
02:25 10.6 °C 10.5 °C 1019.9 hPa Ruhig     99 % 0.0 mm 0.00 W/m2
Neuhaus/WN - Oberpfalz
Compliments of Weather Underground - 512 kb